Time;durP1;ratioP1;P1;durP2;ratioP2;P2;SDS_P1;SDS_P2;PMS_P1;PMS_P2;Temp;Humidity;BMP_temperature;BMP_pressure;BME280_temperature;BME280_humidity;BME280_pressure;Samples;Min_cycle;Max_cycle;Signal;HPM_P1;HPM_P2
2022/05/12 00:00:06;;;;;;;4.40;0.88;;;11.60;99.90;;;;;;5005983;28;20037;-34
2022/05/12 00:02:32;;;;;;;5.65;1.27;;;11.60;99.90;;;;;;5007058;28;20049;-34
2022/05/12 00:04:59;;;;;;;3.88;1.05;;;11.60;99.90;;;;;;5007976;28;20555;-34
2022/05/12 00:07:25;;;;;;;4.95;0.85;;;11.50;99.90;;;;;;4991938;28;20581;-36
2022/05/12 00:09:51;;;;;;;5.75;0.70;;;11.50;99.90;;;;;;5009117;28;20125;-34
2022/05/12 00:12:17;;;;;;;3.35;0.70;;;11.50;99.90;;;;;;5006451;28;20056;-34
2022/05/12 00:14:43;;;;;;;2.85;0.50;;;11.40;99.90;;;;;;5007591;28;21369;-34
2022/05/12 00:17:09;;;;;;;3.15;0.63;;;11.40;99.90;;;;;;4993907;28;20037;-34
2022/05/12 00:19:34;;;;;;;2.45;0.50;;;11.30;99.90;;;;;;5006946;28;20186;-34
2022/05/12 00:22:00;;;;;;;6.13;0.90;;;11.30;99.90;;;;;;5007047;28;20053;-34
2022/05/12 00:24:26;;;;;;;3.60;0.70;;;11.20;99.90;;;;;;5006202;28;20045;-34
2022/05/12 00:26:51;;;;;;;3.60;0.77;;;11.20;99.90;;;;;;4989995;28;20049;-34
2022/05/12 00:29:17;;;;;;;2.97;0.60;;;11.20;99.90;;;;;;5005065;28;20055;-34
2022/05/12 00:31:45;;;;;;;4.93;0.60;;;11.10;99.90;;;;;;5006908;28;20727;-34
2022/05/12 00:34:12;;;;;;;2.25;0.60;;;11.10;99.90;;;;;;5007104;28;20087;-34
2022/05/12 00:36:38;;;;;;;3.00;0.52;;;11.10;99.90;;;;;;4994790;28;20516;-34
2022/05/12 00:39:04;;;;;;;4.28;0.90;;;11.00;99.90;;;;;;5005960;28;20103;-34
2022/05/12 00:41:30;;;;;;;6.10;0.57;;;10.90;99.90;;;;;;5006621;28;20093;-34
2022/05/12 00:44:02;;;;;;;2.13;0.57;;;10.90;99.90;;;;;;5008237;28;20061;-34
2022/05/12 00:46:33;;;;;;;3.92;0.93;;;10.80;99.90;;;;;;4994343;28;20141;-34
2022/05/12 00:49:22;;;;;;;4.50;1.10;;;10.80;99.90;;;;;;5003429;28;20041;-34
2022/05/12 00:51:57;;;;;;;3.88;0.75;;;10.70;99.90;;;;;;5005754;28;21601;-34
2022/05/12 00:54:32;;;;;;;2.28;0.70;;;10.70;99.90;;;;;;5005201;28;20092;-34
2022/05/12 00:56:59;;;;;;;4.57;0.70;;;10.60;99.90;;;;;;4992085;28;20053;-34
2022/05/12 00:59:28;;;;;;;3.03;0.82;;;10.60;99.90;;;;;;5005935;28;20567;-34
2022/05/12 01:01:56;;;;;;;3.05;0.85;;;10.60;99.90;;;;;;5005297;28;20053;-34
2022/05/12 01:04:22;;;;;;;3.40;0.70;;;10.50;99.90;;;;;;5003411;28;20049;-34
2022/05/12 01:06:49;;;;;;;4.18;0.73;;;10.50;99.90;;;;;;4991036;28;20143;-34
2022/05/12 01:09:15;;;;;;;3.20;0.77;;;10.50;99.90;;;;;;5006474;28;20056;-34
2022/05/12 01:11:41;;;;;;;2.88;0.60;;;10.40;99.90;;;;;;5004857;28;20064;-34
2022/05/12 01:14:09;;;;;;;3.28;0.70;;;10.40;99.90;;;;;;5005615;28;20613;-34
2022/05/12 01:16:58;;;;;;;2.85;1.08;;;10.30;99.90;;;;;;4993641;28;20053;-34
2022/05/12 01:19:27;;;;;;;2.83;0.73;;;10.30;99.90;;;;;;5006047;28;20492;-34
2022/05/12 01:21:54;;;;;;;3.10;0.68;;;10.30;99.90;;;;;;5007836;28;20041;-34
2022/05/12 01:24:23;;;;;;;5.53;1.13;;;10.20;99.90;;;;;;5006725;28;20049;-34
2022/05/12 01:26:49;;;;;;;7.83;0.90;;;10.10;99.90;;;;;;4992072;28;20678;-34
2022/05/12 01:29:15;;;;;;;4.80;0.80;;;10.10;99.90;;;;;;5007389;28;20045;-34
2022/05/12 01:31:42;;;;;;;2.47;0.65;;;10.10;99.90;;;;;;5007759;28;20053;-34
2022/05/12 01:34:10;;;;;;;4.40;1.10;;;10.00;99.90;;;;;;5005964;28;20057;-34
2022/05/12 01:36:36;;;;;;;2.53;0.90;;;10.00;99.90;;;;;;4991478;28;21643;-34
2022/05/12 01:39:04;;;;;;;4.93;1.37;;;10.00;99.90;;;;;;5003958;28;20065;-34
2022/05/12 01:41:29;;;;;;;4.73;1.10;;;9.90;99.90;;;;;;5004963;28;20406;-34
2022/05/12 01:43:55;;;;;;;6.88;1.23;;;9.90;99.90;;;;;;5003510;28;20221;-34
2022/05/12 01:46:21;;;;;;;4.47;1.20;;;9.90;99.90;;;;;;4996162;28;20056;-34
2022/05/12 01:48:46;;;;;;;4.47;1.17;;;9.90;99.90;;;;;;5002188;28;20045;-34
2022/05/12 01:51:12;;;;;;;4.40;1.40;;;9.90;99.90;;;;;;5006659;28;20079;-34
2022/05/12 01:53:39;;;;;;;8.97;1.40;;;9.80;99.90;;;;;;5004875;28;20056;-34
2022/05/12 01:56:07;;;;;;;5.43;1.40;;;9.80;99.90;;;;;;5004720;28;20076;-34
2022/05/12 01:58:33;;;;;;;5.30;1.60;;;9.90;99.90;;;;;;4994133;28;20096;-34
2022/05/12 02:00:59;;;;;;;5.83;2.10;;;9.70;99.90;;;;;;5004842;28;20552;-34
2022/05/12 02:03:24;;;;;;;7.70;1.80;;;9.80;99.90;;;;;;5005048;28;20136;-34
2022/05/12 02:05:50;;;;;;;4.77;1.80;;;9.80;99.90;;;;;;5004397;28;20136;-34
2022/05/12 02:08:17;;;;;;;5.90;1.87;;;9.70;99.90;;;;;;4990168;28;21152;-34
2022/05/12 02:10:47;;;;;;;7.83;2.00;;;9.70;99.90;;;;;;5004055;28;20501;-34
2022/05/12 02:13:14;;;;;;;8.50;2.00;;;9.70;99.90;;;;;;5003573;28;20800;-34
2022/05/12 02:15:41;;;;;;;7.00;1.80;;;9.70;99.90;;;;;;5005470;28;20749;-34
2022/05/12 02:18:07;;;;;;;6.80;2.10;;;9.70;99.90;;;;;;4986247;28;20045;-34
2022/05/12 02:20:34;;;;;;;6.30;2.00;;;9.90;99.90;;;;;;5003870;28;20080;-34
2022/05/12 02:23:00;;;;;;;5.93;2.07;;;9.80;99.90;;;;;;5004540;28;20061;-34
2022/05/12 02:25:25;;;;;;;6.47;1.90;;;9.70;99.90;;;;;;5005079;28;20103;-34
2022/05/12 02:27:52;;;;;;;6.37;2.00;;;9.70;99.90;;;;;;4987624;28;20059;-34
2022/05/12 02:30:24;;;;;;;7.77;2.40;;;9.70;99.90;;;;;;5005243;28;20045;-34
2022/05/12 02:32:49;;;;;;;5.93;2.30;;;9.70;99.90;;;;;;5004867;28;20550;-34
2022/05/12 02:35:16;;;;;;;5.87;2.40;;;9.70;99.90;;;;;;5004925;28;20064;-34
2022/05/12 02:37:41;;;;;;;8.00;2.30;;;9.60;99.90;;;;;;4994202;28;20519;-34
2022/05/12 02:40:09;;;;;;;8.30;2.07;;;9.70;99.90;;;;;;5008443;28;20568;-34
2022/05/12 02:42:35;;;;;;;7.40;2.57;;;9.70;99.90;;;;;;5009250;28;20576;-35
2022/05/12 02:45:00;;;;;;;9.03;2.30;;;9.60;99.90;;;;;;5009401;28;20353;-34
2022/05/12 02:47:26;;;;;;;7.50;2.40;;;9.60;99.90;;;;;;4992093;28;20575;-35
2022/05/12 02:49:52;;;;;;;7.97;2.60;;;9.50;99.90;;;;;;5008111;28;20084;-34
2022/05/12 02:52:17;;;;;;;9.10;3.17;;;9.50;99.90;;;;;;5008279;28;20512;-34
2022/05/12 02:54:43;;;;;;;5.93;2.43;;;9.50;99.90;;;;;;5006559;28;20160;-34
2022/05/12 02:57:09;;;;;;;9.20;2.77;;;9.50;99.90;;;;;;4990110;28;20459;-34
2022/05/12 02:59:36;;;;;;;10.87;3.23;;;9.50;99.90;;;;;;5008148;28;20287;-34
2022/05/12 03:02:02;;;;;;;9.27;3.20;;;9.60;99.90;;;;;;5007535;28;20054;-34
2022/05/12 03:04:28;;;;;;;11.33;3.47;;;9.50;99.90;;;;;;5008625;28;20053;-34
2022/05/12 03:06:53;;;;;;;8.73;3.20;;;9.50;99.90;;;;;;4991952;28;20123;-34
2022/05/12 03:09:19;;;;;;;12.40;3.50;;;9.50;99.90;;;;;;5007671;28;20128;-34
2022/05/12 03:11:45;;;;;;;13.60;3.27;;;9.60;99.90;;;;;;5005895;28;20191;-34
2022/05/12 03:14:10;;;;;;;11.27;3.73;;;9.50;99.90;;;;;;5008120;28;20084;-34
2022/05/12 03:16:36;;;;;;;9.97;3.63;;;9.60;99.90;;;;;;4995983;28;20598;-34
2022/05/12 03:19:03;;;;;;;8.97;3.33;;;9.50;99.90;;;;;;5005408;28;20143;-34
2022/05/12 03:21:28;;;;;;;10.70;3.40;;;9.50;99.90;;;;;;5006186;28;20509;-34
2022/05/12 03:23:54;;;;;;;10.27;3.77;;;9.50;99.90;;;;;;5006804;28;20059;-34
2022/05/12 03:26:20;;;;;;;10.73;3.53;;;9.30;99.90;;;;;;5002059;28;20045;-34
2022/05/12 03:28:45;;;;;;;13.60;3.77;;;9.50;99.90;;;;;;4999431;28;20512;-34
2022/05/12 03:31:12;;;;;;;10.90;3.57;;;9.40;99.90;;;;;;5009688;28;20071;-34
2022/05/12 03:33:38;;;;;;;13.77;4.20;;;9.40;99.90;;;;;;5003933;28;20053;-34
2022/05/12 03:36:06;;;;;;;11.83;3.83;;;9.40;99.90;;;;;;5007255;28;20514;-34
2022/05/12 03:38:33;;;;;;;13.37;4.03;;;9.30;99.90;;;;;;4997354;28;20512;-34
2022/05/12 03:40:58;;;;;;;9.70;4.00;;;9.30;99.90;;;;;;5006607;28;20099;-34
2022/05/12 03:46:09;;;;;;;10.87;4.57;;;9.30;99.90;;;;;;5003306;28;20075;-34
2022/05/12 03:48:36;;;;;;;17.17;4.73;;;9.30;99.90;;;;;;5001464;28;20048;-34
2022/05/12 03:51:03;;;;;;;14.37;5.10;;;9.30;99.90;;;;;;5007924;28;20084;-34
2022/05/12 03:53:30;;;;;;;14.13;4.57;;;9.30;99.90;;;;;;5004233;28;20066;-34
2022/05/12 03:55:57;;;;;;;15.37;4.63;;;9.30;99.90;;;;;;5007364;28;20532;-34
2022/05/12 03:58:23;;;;;;;17.40;5.20;;;9.30;99.90;;;;;;4990030;28;20053;-34
2022/05/12 04:00:49;;;;;;;14.40;4.90;;;9.30;99.90;;;;;;5007863;28;20100;-34
2022/05/12 04:03:15;;;;;;;9.17;4.93;;;9.40;99.90;;;;;;5007802;28;20053;-34
2022/05/12 04:05:41;;;;;;;12.30;5.03;;;9.30;99.90;;;;;;5007133;28;20324;-34
2022/05/12 04:08:07;;;;;;;15.13;5.43;;;9.30;99.90;;;;;;4992380;28;20057;-34
2022/05/12 04:10:33;;;;;;;12.53;4.83;;;9.40;99.90;;;;;;5004429;28;20122;-34
2022/05/12 04:12:59;;;;;;;10.20;5.50;;;9.30;99.90;;;;;;5005924;28;20040;-34
2022/05/12 04:15:25;;;;;;;16.77;5.60;;;9.40;99.90;;;;;;5007754;28;20057;-33
2022/05/12 04:17:58;;;;;;;15.83;6.00;;;9.40;99.90;;;;;;4992369;28;20049;-34
2022/05/12 04:20:25;;;;;;;15.63;6.10;;;9.40;99.90;;;;;;5007554;28;20559;-34
2022/05/12 04:22:51;;;;;;;15.33;6.07;;;9.40;99.90;;;;;;5007646;28;20100;-34
2022/05/12 04:25:16;;;;;;;15.10;6.10;;;9.40;99.90;;;;;;5007776;28;20100;-33
2022/05/12 04:27:42;;;;;;;14.13;5.73;;;9.50;99.90;;;;;;4992449;28;21203;-34
2022/05/12 04:30:11;;;;;;;15.93;6.10;;;9.50;99.90;;;;;;5008309;28;20061;-34
2022/05/12 04:32:37;;;;;;;9.47;5.83;;;9.50;99.90;;;;;;5007104;28;20547;-34
2022/05/12 04:35:17;;;;;;;17.83;6.03;;;9.50;99.90;;;;;;5007932;28;20045;-34
2022/05/12 04:37:48;;;;;;;13.43;5.37;;;9.50;99.90;;;;;;4991605;28;20400;-34
2022/05/12 04:40:21;;;;;;;15.53;6.20;;;9.60;99.90;;;;;;5005187;28;20469;-34
2022/05/12 04:42:49;;;;;;;17.70;6.63;;;9.60;99.90;;;;;;5005842;28;20445;-34
2022/05/12 04:45:15;;;;;;;11.73;6.60;;;9.60;99.90;;;;;;5006548;28;20092;-34
2022/05/12 04:47:42;;;;;;;14.73;5.93;;;9.70;99.90;;;;;;4991382;28;20051;-34
2022/05/12 04:50:11;;;;;;;10.83;5.40;;;9.60;99.90;;;;;;5005813;28;20081;-34
2022/05/12 04:52:37;;;;;;;12.53;5.63;;;9.50;99.90;;;;;;5004003;28;20108;-34
2022/05/12 04:55:04;;;;;;;13.00;5.60;;;9.60;99.90;;;;;;5007811;28;20336;-34
2022/05/12 04:57:41;;;;;;;13.33;5.23;;;9.60;99.90;;;;;;4991245;28;20049;-34
2022/05/12 05:00:15;;;;;;;14.10;6.00;;;9.60;99.90;;;;;;5008186;28;20089;-34
2022/05/12 05:02:41;;;;;;;12.30;5.97;;;9.60;99.90;;;;;;5040566;28;20271;-34
2022/05/12 05:05:08;;;;;;;15.33;7.47;;;9.70;99.90;;;;;;5042403;28;20053;-34
2022/05/12 05:07:33;;;;;;;13.53;6.03;;;9.70;99.90;;;;;;5026919;28;20080;-34
2022/05/12 05:09:59;;;;;;;17.07;6.43;;;9.70;99.90;;;;;;5033960;28;20073;-34
2022/05/12 05:12:25;;;;;;;16.53;6.47;;;9.80;99.90;;;;;;5045269;28;20049;-34
2022/05/12 05:14:51;;;;;;;12.50;6.37;;;9.90;99.90;;;;;;5042923;28;20079;-34
2022/05/12 05:17:17;;;;;;;16.10;6.53;;;10.00;99.90;;;;;;5029411;28;20045;-34
2022/05/12 05:19:43;;;;;;;13.87;6.10;;;10.00;99.90;;;;;;5044554;28;20466;-34
2022/05/12 05:22:09;;;;;;;15.47;6.10;;;10.20;99.90;;;;;;5041719;28;20099;-34
2022/05/12 05:24:35;;;;;;;17.57;7.97;;;10.30;99.90;;;;;;5035742;28;20099;-34
2022/05/12 05:27:01;;;;;;;18.47;6.73;;;10.30;99.90;;;;;;5023775;28;20053;-34
2022/05/12 05:29:27;;;;;;;15.33;7.57;;;10.40;99.90;;;;;;5040555;28;20045;-34
2022/05/12 05:31:53;;;;;;;17.13;7.10;;;10.50;99.90;;;;;;5040437;28;20049;-34
2022/05/12 05:34:18;;;;;;;14.83;6.97;;;10.50;99.90;;;;;;5042605;28;20167;-34
2022/05/12 05:36:45;;;;;;;18.33;6.70;;;10.50;99.90;;;;;;5031180;28;20048;-34
2022/05/12 05:39:25;;;;;;;12.27;6.45;;;10.70;99.90;;;;;;5043558;28;20044;-34
2022/05/12 05:41:55;;;;;;;7.43;4.38;;;10.90;99.90;;;;;;5039701;28;20088;-34
2022/05/12 05:44:21;;;;;;;19.75;6.10;;;11.00;99.90;;;;;;5044432;28;20053;-34
2022/05/12 05:46:47;;;;;;;15.73;5.78;;;11.00;99.90;;;;;;5029663;28;20221;-34
2022/05/12 05:49:14;;;;;;;13.02;5.25;;;11.10;99.90;;;;;;5043255;28;20492;-34
2022/05/12 05:54:26;;;;;;;13.55;5.40;;;11.40;99.90;;;;;;5042188;28;20580;-34
2022/05/12 05:56:51;;;;;;;15.77;5.53;;;11.50;99.90;;;;;;5023484;28;20524;-35
2022/05/12 05:59:17;;;;;;;9.82;4.68;;;11.60;99.90;;;;;;5040370;28;20080;-34
2022/05/12 06:01:42;;;;;;;15.18;5.05;;;11.70;99.90;;;;;;5037385;28;20364;-34
2022/05/12 06:04:08;;;;;;;12.15;4.25;;;11.80;99.90;;;;;;5035763;28;20041;-34
2022/05/12 06:06:34;;;;;;;13.75;4.72;;;11.90;99.90;;;;;;5027311;28;20072;-34
2022/05/12 06:08:59;;;;;;;14.77;4.30;;;12.00;99.90;;;;;;5043067;28;20052;-35
2022/05/12 06:11:26;;;;;;;18.42;4.72;;;12.00;99.90;;;;;;5049462;28;20049;-35
2022/05/12 06:13:51;;;;;;;13.25;4.47;;;12.20;99.90;;;;;;5044522;28;20508;-35
2022/05/12 06:16:17;;;;;;;12.75;4.68;;;12.20;99.90;;;;;;5035424;28;20041;-35
2022/05/12 06:18:43;;;;;;;10.80;4.10;;;12.30;99.90;;;;;;5043000;28;20064;-35
2022/05/12 06:21:12;;;;;;;11.93;3.38;;;12.40;99.90;;;;;;5043271;28;20048;-35
2022/05/12 06:23:39;;;;;;;9.68;3.42;;;12.50;99.90;;;;;;5041932;28;20067;-35
2022/05/12 06:26:09;;;;;;;9.13;3.03;;;12.60;99.90;;;;;;5035618;28;20050;-35
2022/05/12 06:28:35;;;;;;;11.35;3.35;;;12.50;99.90;;;;;;5029172;28;20444;-35
2022/05/12 06:31:01;;;;;;;11.77;3.22;;;12.70;99.90;;;;;;5043413;28;20041;-35
2022/05/12 06:33:26;;;;;;;11.05;3.42;;;12.80;99.90;;;;;;5049163;28;20052;-35
2022/05/12 06:35:55;;;;;;;7.88;2.97;;;12.90;99.90;;;;;;5036078;28;20540;-35
2022/05/12 06:38:21;;;;;;;11.65;3.03;;;13.00;99.90;;;;;;5018574;28;20746;-35
2022/05/12 06:40:46;;;;;;;9.77;3.00;;;13.10;99.90;;;;;;5029893;28;20136;-35
2022/05/12 06:43:13;;;;;;;12.90;2.97;;;13.10;99.90;;;;;;5032181;28;20394;-35
2022/05/12 06:45:40;;;;;;;8.68;3.13;;;13.10;99.90;;;;;;5030673;28;20120;-35
2022/05/12 06:48:07;;;;;;;8.20;2.38;;;13.20;99.90;;;;;;5017926;28;20098;-35
2022/05/12 06:50:32;;;;;;;8.95;2.47;;;13.20;99.90;;;;;;5036514;28;20268;-35
2022/05/12 06:52:58;;;;;;;7.85;2.53;;;13.30;99.90;;;;;;5035924;28;20568;-35
2022/05/12 06:55:27;;;;;;;10.77;2.80;;;13.40;99.90;;;;;;5033461;28;20135;-35
2022/05/12 06:57:53;;;;;;;8.85;2.50;;;13.40;99.90;;;;;;5018018;28;20042;-35
2022/05/12 07:00:20;;;;;;;15.25;2.80;;;13.40;99.90;;;;;;5034150;28;20029;-35
2022/05/12 07:02:47;;;;;;;10.65;2.63;;;13.50;99.90;;;;;;5036500;28;20052;-35
2022/05/12 07:05:14;;;;;;;9.80;2.90;;;13.60;99.90;;;;;;5040923;28;20045;-35
2022/05/12 07:07:42;;;;;;;15.57;2.95;;;13.60;99.90;;;;;;5029469;28;20041;-35
2022/05/12 07:10:09;;;;;;;8.30;2.28;;;13.60;99.90;;;;;;5041960;28;20049;-35
2022/05/12 07:12:34;;;;;;;11.02;2.75;;;13.60;99.90;;;;;;5036225;28;20049;-35
2022/05/12 07:15:01;;;;;;;11.13;2.58;;;13.70;99.90;;;;;;5003446;28;20084;-35
2022/05/12 07:17:27;;;;;;;13.60;2.80;;;13.70;99.90;;;;;;4990210;28;20076;-35
2022/05/12 07:26:35;;;;;;;13.23;2.45;;;13.80;99.90;;;;;;5005613;28;20443;-35
2022/05/12 07:28:12;;;;;;;8.60;2.25;;;13.90;99.90;;;;;;4992505;28;20098;-35
2022/05/12 07:33:22;;;;;;;14.95;2.20;;;14.10;99.90;;;;;;5004949;28;20092;-35
2022/05/12 07:35:48;;;;;;;8.52;2.17;;;14.10;99.90;;;;;;5004893;28;20124;-35
2022/05/12 07:38:13;;;;;;;9.35;1.95;;;14.10;99.90;;;;;;4990063;28;20053;-35
2022/05/12 07:40:39;;;;;;;10.70;3.20;;;14.00;99.90;;;;;;5002235;28;20513;-35
2022/05/12 07:43:05;;;;;;;9.73;2.25;;;14.10;99.90;;;;;;5002981;28;20060;-36
2022/05/12 07:45:30;;;;;;;11.73;2.45;;;14.10;99.90;;;;;;5004289;28;20037;-35
2022/05/12 07:47:56;;;;;;;12.63;2.95;;;14.10;99.90;;;;;;4989477;28;20187;-35
2022/05/12 07:50:23;;;;;;;7.57;2.58;;;14.10;99.90;;;;;;5001634;28;21119;-35
2022/05/12 07:52:49;;;;;;;12.10;2.70;;;14.20;99.90;;;;;;5000165;28;20501;-35
2022/05/12 07:55:14;;;;;;;11.20;2.25;;;14.20;99.90;;;;;;5004960;28;20065;-35
2022/05/12 07:57:41;;;;;;;9.55;2.50;;;14.20;99.90;;;;;;4987821;28;20073;-35
2022/05/12 08:00:08;;;;;;;10.63;2.47;;;14.20;99.90;;;;;;5004685;28;20041;-35
2022/05/12 08:02:33;;;;;;;10.40;2.10;;;14.30;99.90;;;;;;5003658;28;20045;-35
2022/05/12 08:04:59;;;;;;;11.05;2.58;;;14.30;99.90;;;;;;5005188;28;20041;-35
2022/05/12 08:07:26;;;;;;;15.95;2.50;;;14.40;99.90;;;;;;4986754;28;20060;-35
2022/05/12 08:09:51;;;;;;;9.00;2.15;;;14.40;99.90;;;;;;5001205;28;20578;-35
2022/05/12 08:12:17;;;;;;;6.78;1.88;;;14.50;99.90;;;;;;4999857;28;20076;-35
2022/05/12 08:14:43;;;;;;;9.10;2.03;;;14.50;99.90;;;;;;5000851;28;20144;-35
2022/05/12 08:17:09;;;;;;;6.35;1.83;;;14.50;99.90;;;;;;4970108;28;20136;-36
2022/05/12 08:19:35;;;;;;;5.78;1.55;;;14.60;99.90;;;;;;5003050;28;20064;-35
2022/05/12 08:22:01;;;;;;;9.93;1.90;;;14.60;99.90;;;;;;5004022;28;20467;-36
2022/05/12 08:24:26;;;;;;;6.88;1.70;;;14.50;99.90;;;;;;5002178;28;20061;-35
2022/05/12 08:26:52;;;;;;;10.88;1.90;;;14.50;99.90;;;;;;4988913;28;20338;-35
2022/05/12 08:29:19;;;;;;;7.85;1.98;;;14.60;99.90;;;;;;4997463;28;20049;-35
2022/05/12 08:31:45;;;;;;;6.63;1.70;;;14.60;99.90;;;;;;5005020;28;20398;-36
2022/05/12 08:34:10;;;;;;;5.50;1.60;;;14.60;99.90;;;;;;4999635;28;20064;-35
2022/05/12 08:36:36;;;;;;;7.30;1.48;;;14.60;99.90;;;;;;4988702;28;20052;-35
2022/05/12 08:39:03;;;;;;;7.25;1.52;;;14.60;99.90;;;;;;5000679;28;20045;-35
2022/05/12 08:41:51;;;;;;;10.65;1.80;;;14.60;99.90;;;;;;5002500;28;20087;-35
2022/05/12 08:44:20;;;;;;;7.90;1.52;;;14.60;99.90;;;;;;5002716;28;20060;-36
2022/05/12 08:46:54;;;;;;;6.57;1.55;;;14.60;99.90;;;;;;4989705;28;20041;-36
2022/05/12 08:49:25;;;;;;;8.30;1.60;;;14.60;99.90;;;;;;5002442;28;20049;-36
2022/05/12 08:51:59;;;;;;;8.07;1.45;;;14.60;99.90;;;;;;5004662;28;20084;-35
2022/05/12 08:54:26;;;;;;;7.80;1.58;;;14.60;99.90;;;;;;5004761;28;20413;-35
2022/05/12 08:57:00;;;;;;;7.43;1.30;;;14.60;99.90;;;;;;4988110;28;20386;-35
2022/05/12 08:59:26;;;;;;;6.47;1.67;;;14.70;99.90;;;;;;5004116;28;20072;-35
2022/05/12 09:02:09;;;;;;;8.77;1.67;;;14.70;99.90;;;;;;5003791;28;20041;-35
2022/05/12 09:04:46;;;;;;;8.27;2.00;;;14.80;99.90;;;;;;5000402;28;20045;-35
2022/05/12 09:07:34;;;;;;;9.60;1.88;;;14.90;99.90;;;;;;4986223;28;20145;-35
2022/05/12 09:10:22;;;;;;;6.88;1.77;;;15.00;99.90;;;;;;5002955;28;20061;-35
2022/05/12 09:13:02;;;;;;;9.98;1.50;;;15.10;99.90;;;;;;5001308;28;20161;-35
2022/05/12 09:15:32;;;;;;;9.13;1.95;;;15.20;99.90;;;;;;5002659;28;20053;-35
2022/05/12 09:18:22;;;;;;;7.78;1.80;;;15.20;99.90;;;;;;4984703;28;20747;-35
2022/05/12 09:20:47;;;;;;;5.97;1.20;;;15.30;99.90;;;;;;5002284;28;20053;-36
2022/05/12 09:23:13;;;;;;;5.72;1.35;;;15.30;99.90;;;;;;5002136;28;20053;-35
2022/05/12 09:25:43;;;;;;;8.35;1.58;;;15.40;99.90;;;;;;5003513;28;20796;-35
2022/05/12 09:28:33;;;;;;;6.80;1.42;;;15.40;99.90;;;;;;4984612;28;20045;-36
2022/05/12 09:31:19;;;;;;;6.25;1.27;;;15.40;99.90;;;;;;5000148;28;20053;-36
2022/05/12 09:33:48;;;;;;;6.28;1.35;;;15.40;99.90;;;;;;5002355;28;21134;-35
2022/05/12 09:36:32;;;;;;;8.15;1.52;;;15.30;99.90;;;;;;4993474;28;21557;-36
2022/05/12 09:38:58;;;;;;;9.55;1.90;;;15.40;99.90;;;;;;5000669;28;20115;-35
2022/05/12 09:41:44;;;;;;;7.18;1.40;;;15.40;99.90;;;;;;5000206;28;20341;-35
2022/05/12 09:44:27;;;;;;;8.00;1.70;;;15.40;99.90;;;;;;4999254;28;20049;-36
2022/05/12 09:46:58;;;;;;;7.45;1.60;;;15.40;99.90;;;;;;4985310;28;20093;-36
2022/05/12 09:49:32;;;;;;;5.20;0.95;;;15.40;99.90;;;;;;4999218;28;20590;-35
2022/05/12 09:52:19;;;;;;;8.38;1.63;;;15.50;99.90;;;;;;5000999;28;20103;-35
2022/05/12 09:54:46;;;;;;;7.78;1.30;;;15.50;99.90;;;;;;5001007;28;20057;-36
2022/05/12 09:57:24;;;;;;;5.78;1.20;;;15.50;99.90;;;;;;4984920;28;20555;-36
2022/05/12 09:59:56;;;;;;;8.98;1.50;;;15.60;99.90;;;;;;4999768;28;20053;-36
2022/05/12 10:08:24;;;;;;;3.63;1.05;;;15.60;99.90;;;;;;4985758;28;20742;-36
2022/05/12 10:10:56;;;;;;;3.90;1.40;;;15.70;99.90;;;;;;5002473;28;20057;-36
2022/05/12 10:13:40;;;;;;;6.15;1.15;;;15.70;99.90;;;;;;4998807;28;20076;-36
2022/05/12 10:16:08;;;;;;;5.57;0.85;;;15.70;99.90;;;;;;4998924;28;20065;-36
2022/05/12 10:18:45;;;;;;;6.55;1.80;;;15.70;99.90;;;;;;4991635;28;20569;-36
2022/05/12 10:21:21;;;;;;;9.60;1.27;;;15.80;99.90;;;;;;5002895;28;20045;-36
2022/05/12 10:24:07;;;;;;;5.60;1.23;;;16.00;99.90;;;;;;5002586;28;20053;-36
2022/05/12 10:26:48;;;;;;;4.63;1.20;;;16.00;99.90;;;;;;4988239;28;20053;-35
2022/05/12 10:29:34;;;;;;;4.60;1.30;;;16.00;99.90;;;;;;4999532;28;20065;-36
2022/05/12 10:32:45;;;;;;;7.93;1.35;;;16.00;99.90;;;;;;5001327;28;20053;-36
2022/05/12 10:35:16;;;;;;;8.70;1.35;;;16.10;99.90;;;;;;5001069;28;20575;-36
2022/05/12 10:37:57;;;;;;;7.82;1.42;;;16.20;99.90;;;;;;4987024;28;20049;-36
2022/05/12 10:40:53;;;;;;;5.22;1.42;;;16.30;99.90;;;;;;5002711;28;20053;-36
2022/05/12 10:43:56;;;;;;;7.15;1.13;;;16.30;99.90;;;;;;4998596;28;20053;-36
2022/05/12 10:46:35;;;;;;;7.65;1.20;;;16.30;99.90;;;;;;4990205;28;20050;-36
2022/05/12 10:49:38;;;;;;;5.18;1.50;;;16.30;99.90;;;;;;4998248;28;20053;-36
2022/05/12 10:52:08;;;;;;;6.28;1.20;;;16.40;99.90;;;;;;5001820;28;20502;-36
2022/05/12 10:54:52;;;;;;;5.38;0.95;;;16.40;99.90;;;;;;4999116;28;21383;-36
2022/05/12 10:57:30;;;;;;;4.95;1.10;;;16.40;99.90;;;;;;4985743;28;20532;-36
2022/05/12 11:00:14;;;;;;;5.10;1.10;;;16.50;99.90;;;;;;5003740;28;21133;-36
2022/05/12 11:02:47;;;;;;;6.38;1.23;;;16.60;99.90;;;;;;5004787;28;20419;-36
2022/05/12 11:05:21;;;;;;;5.18;0.95;;;16.60;99.90;;;;;;5006392;28;20049;-36
2022/05/12 11:07:55;;;;;;;4.53;0.85;;;16.70;99.90;;;;;;4989848;28;20045;-36
2022/05/12 11:10:27;;;;;;;3.15;0.80;;;16.70;99.90;;;;;;5005695;28;20683;-36
2022/05/12 11:12:56;;;;;;;3.97;1.05;;;16.80;99.90;;;;;;5004635;28;20464;-36
2022/05/12 11:15:26;;;;;;;4.32;1.02;;;16.90;99.90;;;;;;5004265;28;20050;-36
2022/05/12 11:17:55;;;;;;;4.85;1.00;;;16.90;99.90;;;;;;4989653;28;20496;-36
2022/05/12 11:20:35;;;;;;;7.13;1.08;;;16.90;99.90;;;;;;5006518;28;20132;-36
2022/05/12 11:23:16;;;;;;;5.95;1.35;;;17.00;99.90;;;;;;5003048;28;20055;-36
2022/05/12 11:26:04;;;;;;;4.03;0.93;;;17.10;99.90;;;;;;5002962;28;20062;-36
2022/05/12 11:31:33;;;;;;;8.65;1.10;;;17.10;99.90;;;;;;5006366;28;20064;-36
2022/05/12 11:34:04;;;;;;;6.22;1.10;;;17.10;99.90;;;;;;5002695;28;20049;-36
2022/05/12 11:36:48;;;;;;;5.72;1.00;;;17.10;99.90;;;;;;4988690;28;20467;-36
2022/05/12 11:39:38;;;;;;;3.70;0.90;;;17.10;99.90;;;;;;5001681;28;20049;-36
2022/05/12 11:42:15;;;;;;;3.28;1.23;;;17.10;99.90;;;;;;5036017;28;20072;-37
2022/05/12 11:45:06;;;;;;;3.42;0.90;;;17.10;99.90;;;;;;5032268;28;20060;-36
2022/05/12 11:47:56;;;;;;;5.35;1.27;;;17.20;99.90;;;;;;5022428;28;20041;-36
2022/05/12 11:50:34;;;;;;;4.65;0.90;;;17.20;99.90;;;;;;5043930;28;20060;-36
2022/05/12 11:53:19;;;;;;;4.13;0.82;;;17.30;99.90;;;;;;5041320;28;20083;-36
2022/05/12 11:56:01;;;;;;;3.78;1.00;;;17.40;99.90;;;;;;5024660;28;20054;-37
2022/05/12 11:58:43;;;;;;;4.82;1.08;;;17.50;99.90;;;;;;4990497;28;20054;-37
2022/05/12 12:01:13;;;;;;;3.78;0.88;;;17.60;99.90;;;;;;5004778;28;20068;-36
2022/05/12 12:03:56;;;;;;;6.68;0.90;;;17.70;99.90;;;;;;5001558;28;20046;-36
2022/05/12 12:06:45;;;;;;;5.88;0.95;;;17.90;99.90;;;;;;4992149;28;20112;-37
2022/05/12 12:09:26;;;;;;;3.38;1.20;;;17.90;99.90;;;;;;4998594;28;20164;-36
2022/05/12 12:11:53;;;;;;;5.30;1.05;;;18.00;99.90;;;;;;5003756;28;20538;-36
2022/05/12 12:14:46;;;;;;;6.70;1.27;;;18.10;99.90;;;;;;5001413;28;20398;-36
2022/05/12 12:17:19;;;;;;;4.05;1.00;;;18.10;99.90;;;;;;4986683;28;20054;-37
2022/05/12 12:19:49;;;;;;;5.53;1.13;;;18.10;99.90;;;;;;5002960;28;20570;-36
2022/05/12 12:22:18;;;;;;;5.77;1.30;;;18.20;99.90;;;;;;5001404;28;20088;-37
2022/05/12 12:24:54;;;;;;;6.38;1.52;;;18.30;99.90;;;;;;5002769;28;20461;-36
2022/05/12 12:27:29;;;;;;;5.05;1.30;;;18.40;99.90;;;;;;4985527;28;20092;-37
2022/05/12 12:30:25;;;;;;;5.28;1.10;;;18.40;99.90;;;;;;5003902;28;20053;-36
2022/05/12 12:33:17;;;;;;;4.68;1.17;;;18.60;99.90;;;;;;5002127;28;20192;-36
2022/05/12 12:36:02;;;;;;;3.15;1.00;;;18.60;99.90;;;;;;5002551;28;20057;-36
2022/05/12 12:38:41;;;;;;;7.18;1.55;;;18.80;99.90;;;;;;4987381;28;20077;-36
2022/05/12 12:41:08;;;;;;;3.00;1.00;;;18.80;99.90;;;;;;5002203;28;20542;-36
2022/05/12 12:43:37;;;;;;;5.50;1.05;;;18.80;99.70;;;;;;5001129;28;20072;-36
2022/05/12 12:46:14;;;;;;;5.80;1.35;;;18.60;99.90;;;;;;5000767;28;20279;-37
2022/05/12 12:48:53;;;;;;;4.55;0.90;;;18.60;99.90;;;;;;4994042;28;20058;-37
2022/05/12 12:51:34;;;;;;;3.85;1.17;;;18.50;99.90;;;;;;5004450;28;20143;-37
2022/05/12 12:57:11;;;;;;;6.57;0.95;;;18.50;99.90;;;;;;4986563;28;20064;-37
2022/05/12 12:59:45;;;;;;;3.17;0.82;;;18.60;99.00;;;;;;5001890;28;20045;-37
2022/05/12 13:02:26;;;;;;;3.20;0.80;;;18.70;98.50;;;;;;5002533;28;20049;-37
2022/05/12 13:04:54;;;;;;;;;;;18.60;98.50;;;;;;5000738;28;20045;-37
2022/05/12 13:07:27;;;;;;;4.22;0.60;;;18.80;97.70;;;;;;4986124;28;20089;-37
2022/05/12 13:09:54;;;;;;;4.38;0.88;;;18.80;97.30;;;;;;5001840;28;20053;-37
2022/05/12 13:12:22;;;;;;;3.88;0.95;;;18.70;96.70;;;;;;5001049;28;20053;-37
2022/05/12 13:14:53;;;;;;;2.83;0.75;;;18.70;97.50;;;;;;5001613;28;20056;-37
2022/05/12 13:17:38;;;;;;;3.25;1.02;;;18.70;98.50;;;;;;4987189;28;20049;-37
2022/05/12 13:20:17;;;;;;;4.63;1.10;;;18.80;99.90;;;;;;5000681;28;20054;-37
2022/05/12 13:22:52;;;;;;;3.60;1.08;;;18.90;99.20;;;;;;5001635;28;20048;-37
2022/05/12 13:25:27;;;;;;;4.47;1.23;;;19.10;99.90;;;;;;5000027;28;21224;-37
2022/05/12 13:27:53;;;;;;;7.70;0.98;;;19.20;98.90;;;;;;4983765;28;20061;-37
2022/05/12 13:30:25;;;;;;;3.30;0.73;;;19.10;97.90;;;;;;4999698;28;20084;-37